createdAt,value
2023-05-02T00:01:14.067Z,9.47
2023-05-02T00:03:35.623Z,8.90
2023-05-02T00:05:57.135Z,9.93
2023-05-02T00:08:18.449Z,12.90
2023-05-02T00:10:39.898Z,10.40
2023-05-02T00:13:01.194Z,9.87
2023-05-02T00:15:22.657Z,10.00
2023-05-02T00:17:45.679Z,10.60
2023-05-02T00:20:09.403Z,9.07
2023-05-02T00:22:30.600Z,11.23
2023-05-02T00:24:51.842Z,10.30
2023-05-02T00:27:14.347Z,10.87
2023-05-02T00:29:35.654Z,9.20
2023-05-02T00:31:56.969Z,8.73
2023-05-02T00:34:19.878Z,10.10
2023-05-02T00:36:41.200Z,8.77
2023-05-02T00:39:02.325Z,9.07
2023-05-02T00:41:23.676Z,9.30
2023-05-02T00:43:45.177Z,10.73
2023-05-02T00:46:07.539Z,11.63
2023-05-02T00:48:28.990Z,12.57
2023-05-02T00:50:51.959Z,10.10
2023-05-02T00:53:12.952Z,9.47
2023-05-02T00:55:34.864Z,8.97
2023-05-02T00:57:56.355Z,8.93
2023-05-02T01:00:17.494Z,9.47
2023-05-02T01:02:44.549Z,10.97
2023-05-02T01:05:12.074Z,10.23
2023-05-02T01:07:42.775Z,11.93
2023-05-02T01:10:10.913Z,10.70
2023-05-02T01:12:34.439Z,12.03
2023-05-02T01:14:56.701Z,11.53
2023-05-02T01:17:18.060Z,9.80
2023-05-02T01:19:42.024Z,9.43
2023-05-02T01:22:04.727Z,10.03
2023-05-02T01:24:29.776Z,9.90
2023-05-02T01:26:53.733Z,11.27
2023-05-02T01:29:17.197Z,10.27
2023-05-02T01:31:39.855Z,11.23
2023-05-02T01:34:02.115Z,9.50
2023-05-02T01:36:24.516Z,10.63
2023-05-02T01:38:46.038Z,12.00
2023-05-02T01:41:07.610Z,11.67
2023-05-02T01:43:29.008Z,11.73
2023-05-02T01:45:52.489Z,11.33
2023-05-02T01:48:14.794Z,12.03
2023-05-02T01:50:37.146Z,11.77
2023-05-02T01:52:59.545Z,11.73
2023-05-02T01:55:20.981Z,12.87
2023-05-02T01:57:43.555Z,10.77
2023-05-02T02:00:06.390Z,10.90
2023-05-02T02:02:29.066Z,11.33
2023-05-02T02:04:50.924Z,10.73
2023-05-02T02:07:14.331Z,12.03
2023-05-02T02:09:35.482Z,10.40
2023-05-02T02:12:03.009Z,11.20
2023-05-02T02:14:26.762Z,11.27
2023-05-02T02:16:48.169Z,10.90
2023-05-02T02:19:11.963Z,10.80
2023-05-02T02:21:34.550Z,11.67
2023-05-02T02:23:57.069Z,10.50
2023-05-02T02:26:19.248Z,10.30
2023-05-02T02:28:40.676Z,10.43
2023-05-02T02:31:02.230Z,9.50
2023-05-02T02:33:25.459Z,9.50
2023-05-02T02:35:52.828Z,10.37
2023-05-02T02:38:18.017Z,10.00
2023-05-02T02:40:42.565Z,10.70
2023-05-02T02:43:07.167Z,9.73
2023-05-02T02:45:36.545Z,8.87
2023-05-02T02:48:04.121Z,9.80
2023-05-02T02:50:28.393Z,10.50
2023-05-02T02:52:53.388Z,10.73
2023-05-02T02:55:18.794Z,10.80
2023-05-02T02:57:42.522Z,10.53
2023-05-02T03:00:06.871Z,11.17
2023-05-02T03:02:30.474Z,10.47
2023-05-02T03:04:52.673Z,10.50
2023-05-02T03:07:14.606Z,11.00
2023-05-02T03:09:43.898Z,10.80
2023-05-02T03:12:05.237Z,10.63
2023-05-02T03:14:26.731Z,10.30
2023-05-02T03:16:47.976Z,10.60
2023-05-02T03:19:09.582Z,11.10
2023-05-02T03:21:31.599Z,10.90
2023-05-02T03:23:53.169Z,10.80
2023-05-02T03:26:16.032Z,11.43
2023-05-02T03:28:37.557Z,9.73
2023-05-02T03:30:58.751Z,10.50
2023-05-02T03:33:20.448Z,10.80
2023-05-02T03:35:42.444Z,10.60
2023-05-02T03:38:03.884Z,10.60
2023-05-02T03:40:25.354Z,9.97
2023-05-02T03:42:48.208Z,9.17
2023-05-02T03:45:10.334Z,10.47
2023-05-02T03:47:31.583Z,9.70
2023-05-02T03:49:53.222Z,9.60
2023-05-02T03:52:14.233Z,10.10
2023-05-02T03:54:35.900Z,9.33
2023-05-02T03:56:58.200Z,9.50
2023-05-02T03:59:20.955Z,10.73
2023-05-02T04:01:42.353Z,10.90
2023-05-02T04:04:03.891Z,10.07
2023-05-02T04:06:25.538Z,12.87
2023-05-02T04:08:46.928Z,8.97
2023-05-02T04:11:08.574Z,9.60
2023-05-02T04:13:30.277Z,8.70
2023-05-02T04:15:52.613Z,9.93
2023-05-02T04:18:13.919Z,9.53
2023-05-02T04:20:35.245Z,8.70
2023-05-02T04:22:56.687Z,8.83
2023-05-02T04:25:18.154Z,9.10
2023-05-02T04:27:39.636Z,8.87
2023-05-02T04:30:00.816Z,9.23
2023-05-02T04:32:24.249Z,9.73
2023-05-02T04:34:45.539Z,9.53
2023-05-02T04:37:07.287Z,8.63
2023-05-02T04:39:28.771Z,8.13
2023-05-02T04:41:50.371Z,8.37
2023-05-02T04:44:11.771Z,8.40
2023-05-02T04:46:33.179Z,8.97
2023-05-02T04:48:56.024Z,8.53
2023-05-02T04:51:17.355Z,8.57
2023-05-02T04:53:38.615Z,8.00
2023-05-02T04:56:00.212Z,7.83
2023-05-02T04:58:21.348Z,8.70
2023-05-02T05:00:42.503Z,8.73
2023-05-02T05:03:03.866Z,8.80
2023-05-02T05:05:26.589Z,8.50
2023-05-02T05:07:47.941Z,9.70
2023-05-02T05:10:11.329Z,11.40
2023-05-02T05:12:32.638Z,11.10
2023-05-02T05:14:55.134Z,11.10
2023-05-02T05:17:16.228Z,11.30
2023-05-02T05:19:37.680Z,10.87
2023-05-02T05:22:00.914Z,11.87
2023-05-02T05:24:22.007Z,11.10
2023-05-02T05:26:43.342Z,10.57
2023-05-02T05:29:04.596Z,9.87
2023-05-02T05:31:25.799Z,10.20
2023-05-02T05:33:47.108Z,9.00
2023-05-02T05:36:09.460Z,9.30
2023-05-02T05:38:32.433Z,9.23
2023-05-02T05:40:53.547Z,10.13
2023-05-02T05:43:15.007Z,10.63
2023-05-02T05:45:36.374Z,10.27
2023-05-02T05:47:57.912Z,10.10
2023-05-02T05:50:19.487Z,10.93
2023-05-02T05:52:41.056Z,10.30
2023-05-02T05:55:04.436Z,11.13
2023-05-02T05:57:25.831Z,13.47
2023-05-02T05:59:47.692Z,11.90
2023-05-02T06:02:09.572Z,12.53
2023-05-02T06:04:31.198Z,11.07
2023-05-02T06:06:53.868Z,11.00
2023-05-02T06:09:15.696Z,10.93
2023-05-02T06:11:39.175Z,12.20
2023-05-02T06:14:00.543Z,11.50
2023-05-02T06:16:21.691Z,10.40
2023-05-02T06:18:43.219Z,10.47
2023-05-02T06:21:05.428Z,10.10
2023-05-02T06:23:27.400Z,9.30
2023-05-02T06:25:48.774Z,9.87
2023-05-02T06:28:11.318Z,9.00
2023-05-02T06:30:32.498Z,9.40
2023-05-02T06:32:53.832Z,9.63
2023-05-02T06:35:15.307Z,9.40
2023-05-02T06:37:36.540Z,9.43
2023-05-02T06:39:57.909Z,8.83
2023-05-02T06:42:19.687Z,9.20
2023-05-02T06:44:42.261Z,8.73
2023-05-02T06:47:05.222Z,9.53
2023-05-02T06:49:27.333Z,9.63
2023-05-02T06:51:49.116Z,9.83
2023-05-02T06:54:10.460Z,10.00
2023-05-02T06:56:31.448Z,16.50
2023-05-02T06:58:52.590Z,9.70
2023-05-02T07:01:15.584Z,9.53
2023-05-02T07:03:37.065Z,8.83
2023-05-02T07:05:58.093Z,9.77
2023-05-02T07:08:21.429Z,9.33
2023-05-02T07:10:43.544Z,8.97
2023-05-02T07:13:04.841Z,8.83
2023-05-02T07:15:26.200Z,8.80
2023-05-02T07:17:49.690Z,8.63
2023-05-02T07:20:11.996Z,9.20
2023-05-02T07:22:33.424Z,9.30
2023-05-02T07:24:58.332Z,9.13
2023-05-02T07:27:19.380Z,9.50
2023-05-02T07:29:42.444Z,10.77
2023-05-02T07:32:04.330Z,9.97
2023-05-02T07:34:27.053Z,11.37
2023-05-02T07:36:48.569Z,9.37
2023-05-02T07:39:10.529Z,10.60
2023-05-02T07:41:31.719Z,10.40
2023-05-02T07:43:53.455Z,11.70
2023-05-02T07:46:14.658Z,10.53
2023-05-02T07:48:36.082Z,11.17
2023-05-02T07:51:06.416Z,11.97
2023-05-02T07:53:27.811Z,15.40
2023-05-02T07:55:49.255Z,12.87
2023-05-02T07:58:11.216Z,13.17
2023-05-02T08:00:32.674Z,12.07
2023-05-02T08:02:54.079Z,12.23
2023-05-02T08:05:15.502Z,12.20
2023-05-02T08:07:37.938Z,13.93
2023-05-02T08:09:59.561Z,12.00
2023-05-02T08:12:20.957Z,12.63
2023-05-02T08:14:42.292Z,12.60
2023-05-02T08:17:03.608Z,13.30
2023-05-02T08:19:24.942Z,13.27
2023-05-02T08:21:46.436Z,14.97
2023-05-02T08:24:09.262Z,14.80
2023-05-02T08:26:31.621Z,17.27
2023-05-02T08:28:53.182Z,15.73
2023-05-02T08:31:14.713Z,15.20
2023-05-02T08:33:35.917Z,16.90
2023-05-02T08:35:56.988Z,17.60
2023-05-02T08:38:18.415Z,16.37
2023-05-02T08:40:42.804Z,16.73
2023-05-02T08:43:05.666Z,16.33
2023-05-02T08:45:27.555Z,15.73
2023-05-02T08:47:49.417Z,16.87
2023-05-02T08:50:11.104Z,16.87
2023-05-02T08:52:33.450Z,17.43
2023-05-02T08:54:55.780Z,18.10
2023-05-02T08:57:18.639Z,17.37
2023-05-02T08:59:39.722Z,18.80
2023-05-02T09:02:02.621Z,19.63
2023-05-02T09:04:25.682Z,20.37
2023-05-02T09:06:47.346Z,20.10
2023-05-02T09:09:08.596Z,19.87
2023-05-02T09:11:30.059Z,20.93
2023-05-02T09:13:52.924Z,19.67
2023-05-02T09:16:14.882Z,21.03
2023-05-02T09:18:36.716Z,20.23
2023-05-02T09:20:59.097Z,20.37
2023-05-02T09:23:20.392Z,20.50
2023-05-02T09:25:41.884Z,20.23
2023-05-02T09:28:03.371Z,20.17
2023-05-02T09:30:26.434Z,19.87
2023-05-02T09:32:48.157Z,18.93
2023-05-02T09:35:10.299Z,19.83
2023-05-02T09:37:37.691Z,20.87
2023-05-02T09:40:06.682Z,19.70
2023-05-02T09:42:32.720Z,20.70
2023-05-02T09:44:54.461Z,21.43
2023-05-02T09:47:26.485Z,18.77
2023-05-02T09:49:49.741Z,19.10
2023-05-02T09:52:11.966Z,19.60
2023-05-02T09:54:36.295Z,19.20
2023-05-02T09:56:57.947Z,20.23
2023-05-02T09:59:19.138Z,20.17
2023-05-02T10:01:41.648Z,20.73
2023-05-02T10:04:05.292Z,19.90
2023-05-02T10:06:28.204Z,19.47
2023-05-02T10:08:50.173Z,20.97
2023-05-02T10:11:13.502Z,20.03
2023-05-02T10:13:35.234Z,18.93
2023-05-02T10:15:59.676Z,19.90
2023-05-02T10:18:25.071Z,18.77
2023-05-02T10:20:52.593Z,17.63
2023-05-02T10:23:14.061Z,18.77
2023-05-02T10:25:35.935Z,19.20
2023-05-02T10:27:57.709Z,19.17
2023-05-02T10:30:19.295Z,18.20
2023-05-02T10:32:40.827Z,19.93
2023-05-02T10:35:04.231Z,18.13
2023-05-02T10:37:27.627Z,19.00
2023-05-02T10:39:48.869Z,18.97
2023-05-02T10:42:10.847Z,19.10
2023-05-02T10:44:35.825Z,18.00
2023-05-02T10:46:57.295Z,18.50
2023-05-02T10:49:18.623Z,17.30
2023-05-02T10:51:41.240Z,16.87
2023-05-02T10:54:22.596Z,16.40
2023-05-02T10:56:58.947Z,16.87
2023-05-02T10:59:28.312Z,16.80
2023-05-02T11:01:49.449Z,17.90
2023-05-02T11:04:11.479Z,17.63
2023-05-02T11:06:34.186Z,18.57
2023-05-02T11:09:15.517Z,17.73
2023-05-02T11:11:42.265Z,17.23
2023-05-02T11:14:03.400Z,17.00
2023-05-02T11:16:24.879Z,17.37
2023-05-02T11:19:01.914Z,17.57
2023-05-02T11:21:27.656Z,17.93
2023-05-02T11:23:49.173Z,17.80
2023-05-02T11:26:23.176Z,16.40
2023-05-02T11:28:48.812Z,16.37
2023-05-02T11:31:10.854Z,16.87
2023-05-02T11:33:32.671Z,15.63
2023-05-02T11:35:53.771Z,16.20
2023-05-02T11:38:16.620Z,15.67
2023-05-02T11:40:37.976Z,15.93
2023-05-02T11:43:00.158Z,17.10
2023-05-02T11:45:24.052Z,18.30
2023-05-02T11:47:46.278Z,16.93
2023-05-02T11:50:09.534Z,16.60
2023-05-02T11:52:30.806Z,16.07
2023-05-02T11:54:55.179Z,17.13
2023-05-02T11:57:16.540Z,17.47
2023-05-02T11:59:50.773Z,17.83
2023-05-02T12:02:13.425Z,16.63
2023-05-02T12:04:43.197Z,15.50
2023-05-02T12:07:04.700Z,15.03
2023-05-02T12:09:26.024Z,15.63
2023-05-02T12:11:52.603Z,14.60
2023-05-02T12:14:13.847Z,13.93
2023-05-02T12:16:35.380Z,15.00
2023-05-02T12:18:59.635Z,14.57
2023-05-02T12:21:21.222Z,16.43
2023-05-02T12:23:43.093Z,16.37
2023-05-02T12:26:17.422Z,15.57
2023-05-02T12:28:49.308Z,17.07
2023-05-02T12:31:11.866Z,16.47
2023-05-02T12:33:42.792Z,17.33
2023-05-02T12:36:10.001Z,16.27
2023-05-02T12:38:31.444Z,17.23
2023-05-02T12:40:53.603Z,17.67
2023-05-02T12:43:14.877Z,16.10
2023-05-02T12:45:36.664Z,15.47
2023-05-02T12:47:57.917Z,14.30
2023-05-02T12:50:19.499Z,15.60
2023-05-02T12:52:48.710Z,14.53
2023-05-02T12:55:19.233Z,14.27
2023-05-02T12:57:40.312Z,12.03
2023-05-02T13:00:01.698Z,12.53
2023-05-02T13:02:23.071Z,12.87
2023-05-02T13:04:44.330Z,14.60
2023-05-02T13:07:05.848Z,14.93
2023-05-02T13:09:28.395Z,15.57
2023-05-02T13:11:49.417Z,18.47
2023-05-02T13:14:11.524Z,18.97
2023-05-02T13:16:33.842Z,18.97
2023-05-02T13:18:55.166Z,18.83
2023-05-02T13:21:16.754Z,20.53
2023-05-02T13:23:39.903Z,20.07
2023-05-02T13:26:02.680Z,22.17
2023-05-02T13:28:24.487Z,21.07
2023-05-02T13:30:45.612Z,18.83
2023-05-02T13:33:06.945Z,19.20
2023-05-02T13:35:28.309Z,17.23
2023-05-02T13:37:49.541Z,16.67
2023-05-02T13:40:11.756Z,15.10
2023-05-02T13:42:34.248Z,13.87
2023-05-02T13:44:55.389Z,17.10
2023-05-02T13:47:16.866Z,15.30
2023-05-02T13:49:38.351Z,15.60
2023-05-02T13:51:59.952Z,16.53
2023-05-02T13:54:21.358Z,16.07
2023-05-02T13:56:42.956Z,15.03
2023-05-02T13:59:07.345Z,15.07
2023-05-02T14:01:29.280Z,15.00
2023-05-02T14:03:50.668Z,15.23
2023-05-02T14:06:11.839Z,14.37
2023-05-02T14:08:33.082Z,14.60
2023-05-02T14:10:54.430Z,15.73
2023-05-02T14:13:15.692Z,14.33
2023-05-02T14:15:38.951Z,13.83
2023-05-02T14:18:00.152Z,12.23
2023-05-02T14:20:23.432Z,12.97
2023-05-02T14:22:44.822Z,12.73
2023-05-02T14:25:06.664Z,12.60
2023-05-02T14:27:28.004Z,13.47
2023-05-02T14:29:49.544Z,12.57
2023-05-02T14:32:12.288Z,12.80
2023-05-02T14:34:33.829Z,13.23
2023-05-02T14:36:55.132Z,14.17
2023-05-02T14:39:16.878Z,14.33
2023-05-02T14:41:37.793Z,13.57
2023-05-02T14:43:59.191Z,14.40
2023-05-02T14:46:20.754Z,14.00
2023-05-02T14:48:43.317Z,13.03
2023-05-02T14:51:04.971Z,14.33
2023-05-02T14:53:26.487Z,12.37
2023-05-02T14:55:47.960Z,14.63
2023-05-02T14:58:10.406Z,13.93
2023-05-02T15:00:32.090Z,14.97
2023-05-02T15:02:53.667Z,15.10
2023-05-02T15:05:16.576Z,13.53
2023-05-02T15:07:37.744Z,12.23
2023-05-02T15:09:59.196Z,12.20
2023-05-02T15:12:20.436Z,10.97
2023-05-02T15:14:41.701Z,9.77
2023-05-02T15:17:03.355Z,9.50
2023-05-02T15:19:25.130Z,9.80
2023-05-02T15:21:48.885Z,9.20
2023-05-02T15:24:11.469Z,8.83
2023-05-02T15:26:32.660Z,8.70
2023-05-02T15:28:54.218Z,9.07
2023-05-02T15:31:15.459Z,8.10
2023-05-02T15:33:36.924Z,7.60
2023-05-02T15:35:59.274Z,6.70
2023-05-02T15:38:22.026Z,7.67
2023-05-02T15:40:43.176Z,8.63
2023-05-02T15:43:04.534Z,9.23
2023-05-02T15:45:25.908Z,9.97
2023-05-02T15:47:47.179Z,9.37
2023-05-02T15:50:10.714Z,10.40
2023-05-02T15:52:32.175Z,10.10
2023-05-02T15:54:56.083Z,10.17
2023-05-02T15:57:17.640Z,11.03
2023-05-02T15:59:39.155Z,12.23
2023-05-02T16:02:00.537Z,10.40
2023-05-02T16:04:21.674Z,10.00
2023-05-02T16:06:43.238Z,10.13
2023-05-02T16:09:06.404Z,9.37
2023-05-02T16:11:29.214Z,8.63
2023-05-02T16:13:50.446Z,9.20
2023-05-02T16:16:11.788Z,8.93
2023-05-02T16:18:34.201Z,8.10
2023-05-02T16:20:55.889Z,7.63
2023-05-02T16:23:17.960Z,7.10
2023-05-02T16:25:39.330Z,6.60
2023-05-02T16:28:02.134Z,8.07
2023-05-02T16:30:23.653Z,7.33
2023-05-02T16:32:44.858Z,7.00
2023-05-02T16:35:07.508Z,9.37
2023-05-02T16:37:29.145Z,9.03
2023-05-02T16:39:50.500Z,7.47
2023-05-02T16:42:12.091Z,10.03
2023-05-02T16:44:34.689Z,7.40
2023-05-02T16:46:55.898Z,7.13
2023-05-02T16:49:17.131Z,6.53
2023-05-02T16:51:38.627Z,6.57
2023-05-02T16:54:00.057Z,8.97
2023-05-02T16:56:21.584Z,9.73
2023-05-02T16:58:43.069Z,6.40
2023-05-02T17:01:06.405Z,7.20
2023-05-02T17:03:27.839Z,6.60
2023-05-02T17:05:48.959Z,5.20
2023-05-02T17:08:11.044Z,6.87
2023-05-02T17:10:32.279Z,5.73
2023-05-02T17:12:55.891Z,8.30
2023-05-02T17:15:16.916Z,6.30
2023-05-02T17:17:39.802Z,4.63
2023-05-02T17:20:01.317Z,4.93
2023-05-02T17:22:22.763Z,4.60
2023-05-02T17:24:48.156Z,4.57
2023-05-02T17:27:11.023Z,4.57
2023-05-02T17:29:32.530Z,4.07
2023-05-02T17:31:53.850Z,3.90
2023-05-02T17:34:16.442Z,5.37
2023-05-02T17:36:40.051Z,4.00
2023-05-02T17:39:01.390Z,4.53
2023-05-02T17:41:22.681Z,5.37
2023-05-02T17:43:44.073Z,4.60
2023-05-02T17:46:07.997Z,5.10
2023-05-02T17:48:29.429Z,5.60
2023-05-02T17:50:53.083Z,5.40
2023-05-02T17:53:15.504Z,5.73
2023-05-02T17:55:37.509Z,5.43
2023-05-02T17:57:59.415Z,6.10
2023-05-02T18:00:20.624Z,6.50
2023-05-02T18:02:41.711Z,5.70
2023-05-02T18:05:04.094Z,6.53
2023-05-02T18:07:29.107Z,6.10
2023-05-02T18:09:50.632Z,5.50
2023-05-02T18:12:11.648Z,5.80
2023-05-02T18:14:33.614Z,6.33
2023-05-02T18:16:54.600Z,5.90
2023-05-02T18:19:15.936Z,5.67
2023-05-02T18:21:37.756Z,5.00
2023-05-02T18:24:00.362Z,5.10
2023-05-02T18:26:21.512Z,5.33
2023-05-02T18:28:44.749Z,5.27
2023-05-02T18:31:06.036Z,5.10
2023-05-02T18:33:27.064Z,5.80
2023-05-02T18:35:48.632Z,5.53
2023-05-02T18:38:10.036Z,5.27
2023-05-02T18:40:32.606Z,6.30
2023-05-02T18:42:53.787Z,5.90
2023-05-02T18:45:15.811Z,5.30
2023-05-02T18:47:37.000Z,5.47
2023-05-02T18:49:59.594Z,5.00
2023-05-02T18:52:21.187Z,5.53
2023-05-02T18:54:42.383Z,5.77
2023-05-02T18:57:05.099Z,6.57
2023-05-02T18:59:26.117Z,5.40
2023-05-02T19:01:48.551Z,4.90
2023-05-02T19:04:09.959Z,5.10
2023-05-02T19:06:31.554Z,4.50
2023-05-02T19:08:52.853Z,4.97
2023-05-02T19:14:39.697Z,5.03
2023-05-02T19:17:01.307Z,4.97
2023-05-02T19:19:22.721Z,5.27
2023-05-02T19:21:44.127Z,5.40
2023-05-02T19:24:05.943Z,4.87
2023-05-02T19:26:26.984Z,6.67
2023-05-02T19:28:48.414Z,4.77
2023-05-02T19:31:11.745Z,4.90
2023-05-02T19:33:33.098Z,5.67
2023-05-02T19:35:54.525Z,5.17
2023-05-02T19:38:15.804Z,5.03
2023-05-02T19:40:36.925Z,8.37
2023-05-02T19:42:58.445Z,5.60
2023-05-02T19:45:19.640Z,5.27
2023-05-02T19:47:43.907Z,4.73
2023-05-02T19:50:05.944Z,5.27
2023-05-02T19:52:27.376Z,5.13
2023-05-02T19:54:51.405Z,6.13
2023-05-02T19:57:12.259Z,5.37
2023-05-02T19:59:33.600Z,5.50
2023-05-02T20:01:55.449Z,5.60
2023-05-02T20:04:18.056Z,5.90
2023-05-02T20:06:39.551Z,5.37
2023-05-02T20:09:01.051Z,4.60
2023-05-02T20:11:22.253Z,6.87
2023-05-02T20:13:43.232Z,5.07
2023-05-02T20:16:04.782Z,5.63
2023-05-02T20:18:25.934Z,5.13
2023-05-02T20:20:48.807Z,5.60
2023-05-02T20:23:09.962Z,5.40
2023-05-02T20:25:31.913Z,5.40
2023-05-02T20:27:53.461Z,5.30
2023-05-02T20:30:14.968Z,5.63
2023-05-02T20:32:36.257Z,5.10
2023-05-02T20:34:57.735Z,4.80
2023-05-02T20:37:20.161Z,4.77
2023-05-02T20:39:41.153Z,5.23
2023-05-02T20:42:02.669Z,5.50
2023-05-02T20:44:26.934Z,4.60
2023-05-02T20:46:48.316Z,4.63
2023-05-02T20:49:09.671Z,4.57
2023-05-02T20:51:31.425Z,4.50
2023-05-02T20:53:54.531Z,4.87
2023-05-02T20:56:16.066Z,4.80
2023-05-02T20:58:37.702Z,4.90
2023-05-02T21:00:59.420Z,4.20
2023-05-02T21:03:21.398Z,4.47
2023-05-02T21:05:42.842Z,5.20
2023-05-02T21:08:04.220Z,4.43
2023-05-02T21:10:27.890Z,4.63
2023-05-02T21:12:49.172Z,4.37
2023-05-02T21:15:10.570Z,5.70
2023-05-02T21:17:31.774Z,4.97
2023-05-02T21:19:54.162Z,4.70
2023-05-02T21:22:15.543Z,4.87
2023-05-02T21:24:37.735Z,4.50
2023-05-02T21:27:00.497Z,5.97
2023-05-02T21:29:21.660Z,4.20
2023-05-02T21:31:42.998Z,4.63
2023-05-02T21:34:04.251Z,4.87
2023-05-02T21:36:25.887Z,4.67
2023-05-02T21:38:46.978Z,4.67
2023-05-02T21:41:08.893Z,5.80
2023-05-02T21:43:32.313Z,4.60
2023-05-02T21:45:53.296Z,4.80
2023-05-02T21:48:15.694Z,4.70
2023-05-02T21:50:36.943Z,5.23
2023-05-02T21:52:59.383Z,5.47
2023-05-02T21:55:20.844Z,4.77
2023-05-02T21:57:42.402Z,4.67
2023-05-02T22:00:06.252Z,4.77
2023-05-02T22:02:27.661Z,4.80
2023-05-02T22:04:50.931Z,4.63
2023-05-02T22:07:12.474Z,5.20
2023-05-02T22:09:33.735Z,4.70
2023-05-02T22:11:54.783Z,5.23
2023-05-02T22:14:16.063Z,4.27
2023-05-02T22:16:39.970Z,4.53
2023-05-02T22:19:01.523Z,7.37
2023-05-02T22:21:22.710Z,5.07
2023-05-02T22:23:44.068Z,5.37
2023-05-02T22:26:05.457Z,5.47
2023-05-02T22:28:27.628Z,4.70
2023-05-02T22:30:48.985Z,5.03
2023-05-02T22:33:12.006Z,5.63
2023-05-02T22:35:33.197Z,6.93
2023-05-02T22:37:54.215Z,4.60
2023-05-02T22:40:15.605Z,5.93
2023-05-02T22:42:36.591Z,6.93
2023-05-02T22:44:57.903Z,5.60
2023-05-02T22:47:19.672Z,5.40
2023-05-02T22:49:42.942Z,7.33
2023-05-02T22:52:04.277Z,4.83
2023-05-02T22:54:25.775Z,7.13
2023-05-02T22:56:47.238Z,5.30
2023-05-02T22:59:08.768Z,5.30
2023-05-02T23:01:30.675Z,5.10
2023-05-02T23:03:51.993Z,5.07
2023-05-02T23:06:14.612Z,5.27
2023-05-02T23:08:35.823Z,5.90
2023-05-02T23:10:56.994Z,6.33
2023-05-02T23:13:18.111Z,5.77
2023-05-02T23:15:40.130Z,6.03
2023-05-02T23:18:01.575Z,5.10
2023-05-02T23:20:23.305Z,5.00
2023-05-02T23:22:46.148Z,5.03
2023-05-02T23:25:07.993Z,5.20
2023-05-02T23:27:29.144Z,9.10
2023-05-02T23:29:50.557Z,4.50
2023-05-02T23:32:11.867Z,5.33
2023-05-02T23:34:33.280Z,5.93
2023-05-02T23:36:54.979Z,6.27
2023-05-02T23:39:17.681Z,5.03
2023-05-02T23:41:39.019Z,5.40
2023-05-02T23:44:00.183Z,5.30
2023-05-02T23:46:21.500Z,5.67
2023-05-02T23:48:42.786Z,5.53
2023-05-02T23:51:04.252Z,5.83
2023-05-02T23:53:25.617Z,5.33
2023-05-02T23:55:48.227Z,5.73
2023-05-02T23:58:10.152Z,5.83
